createdAt,value
2024-01-16T00:00:20.468Z,71.40
2024-01-16T00:02:49.746Z,71.20
2024-01-16T00:05:17.874Z,71.50
2024-01-16T00:07:45.776Z,71.10
2024-01-16T00:10:13.688Z,71.70
2024-01-16T00:12:42.226Z,71.40
2024-01-16T00:15:11.994Z,71.20
2024-01-16T00:17:40.047Z,71.70
2024-01-16T00:20:10.595Z,71.70
2024-01-16T00:22:38.541Z,72.00
2024-01-16T00:25:07.562Z,72.30
2024-01-16T00:27:35.433Z,72.00
2024-01-16T00:30:03.321Z,72.30
2024-01-16T00:32:31.274Z,72.20
2024-01-16T00:34:59.174Z,72.20
2024-01-16T00:37:28.397Z,72.00
2024-01-16T00:39:56.286Z,71.80
2024-01-16T00:42:24.205Z,71.70
2024-01-16T00:44:52.101Z,71.50
2024-01-16T00:47:20.187Z,71.90
2024-01-16T00:49:48.595Z,71.10
2024-01-16T00:52:16.554Z,71.60
2024-01-16T00:54:46.245Z,71.80
2024-01-16T00:57:16.479Z,71.70
2024-01-16T00:59:44.521Z,71.50
2024-01-16T01:02:13.164Z,71.70
2024-01-16T01:04:42.519Z,71.80
2024-01-16T01:07:10.468Z,71.40
2024-01-16T01:09:38.302Z,71.80
2024-01-16T01:12:08.870Z,71.50
2024-01-16T01:14:36.809Z,71.70
2024-01-16T01:17:05.139Z,71.40
2024-01-16T01:19:33.133Z,71.50
2024-01-16T01:22:00.995Z,71.50
2024-01-16T01:24:28.842Z,71.50
2024-01-16T01:26:56.722Z,71.20
2024-01-16T01:29:25.934Z,71.30
2024-01-16T01:31:53.823Z,71.80
2024-01-16T01:34:21.865Z,72.30
2024-01-16T01:36:49.843Z,72.50
2024-01-16T01:39:17.672Z,73.50
2024-01-16T01:41:45.655Z,73.80
2024-01-16T01:44:17.394Z,74.40
2024-01-16T01:46:47.624Z,74.80
2024-01-16T01:49:17.506Z,75.20
2024-01-16T01:51:46.495Z,75.30
2024-01-16T01:54:16.402Z,75.30
2024-01-16T01:56:46.947Z,75.50
2024-01-16T01:59:16.343Z,75.30
2024-01-16T02:01:46.952Z,75.80
2024-01-16T02:04:16.969Z,76.20
2024-01-16T02:06:45.822Z,76.70
2024-01-16T02:09:14.545Z,76.40
2024-01-16T02:11:42.522Z,76.70
2024-01-16T02:14:10.946Z,77.00
2024-01-16T02:16:39.993Z,77.20
2024-01-16T02:19:10.042Z,77.00
2024-01-16T02:21:41.337Z,76.80
2024-01-16T02:24:12.567Z,77.00
2024-01-16T02:26:40.838Z,77.30
2024-01-16T02:29:08.936Z,77.30
2024-01-16T02:31:36.885Z,77.20
2024-01-16T02:34:05.534Z,77.20
2024-01-16T02:36:34.276Z,77.00
2024-01-16T02:39:02.229Z,77.60
2024-01-16T02:41:31.427Z,77.70
2024-01-16T02:43:59.347Z,77.70
2024-01-16T02:46:27.217Z,77.80
2024-01-16T02:48:55.070Z,78.20
2024-01-16T02:51:22.889Z,79.00
2024-01-16T02:53:50.804Z,79.30
2024-01-16T02:56:18.739Z,79.30
2024-01-16T02:58:48.019Z,79.70
2024-01-16T03:01:15.957Z,80.40
2024-01-16T03:03:43.886Z,80.60
2024-01-16T03:06:12.016Z,80.30
2024-01-16T03:08:39.932Z,81.00
2024-01-16T03:11:08.365Z,80.40
2024-01-16T03:13:36.376Z,80.80
2024-01-16T03:16:08.765Z,80.70
2024-01-16T03:18:38.882Z,81.20
2024-01-16T03:21:08.601Z,81.90
2024-01-16T03:23:36.491Z,81.80
2024-01-16T03:26:04.860Z,82.00
2024-01-16T03:28:32.873Z,82.10
2024-01-16T03:31:00.712Z,82.20
2024-01-16T03:33:29.998Z,82.00
2024-01-16T03:35:57.917Z,82.20
2024-01-16T03:38:25.880Z,82.10
2024-01-16T03:40:53.793Z,82.80
2024-01-16T03:43:21.649Z,83.00
2024-01-16T03:45:49.549Z,83.10
2024-01-16T03:48:17.606Z,83.00
2024-01-16T03:50:48.388Z,83.60
2024-01-16T03:53:16.386Z,84.40
2024-01-16T03:55:44.608Z,83.80
2024-01-16T03:58:13.598Z,83.80
2024-01-16T04:00:41.710Z,84.00
2024-01-16T04:03:10.005Z,84.40
2024-01-16T04:05:38.025Z,84.60
2024-01-16T04:08:08.461Z,84.50
2024-01-16T04:10:36.574Z,84.90
2024-01-16T04:13:05.106Z,85.20
2024-01-16T04:15:32.960Z,85.50
2024-01-16T04:18:01.156Z,85.80
2024-01-16T04:20:29.033Z,85.80
2024-01-16T04:22:56.944Z,86.20
2024-01-16T04:25:26.168Z,86.80
2024-01-16T04:27:53.979Z,87.20
2024-01-16T04:30:22.485Z,87.00
2024-01-16T04:32:50.431Z,87.30
2024-01-16T04:35:18.422Z,87.50
2024-01-16T04:37:46.236Z,87.80
2024-01-16T04:40:14.148Z,88.40
2024-01-16T04:42:43.631Z,88.50
2024-01-16T04:45:11.918Z,89.10
2024-01-16T04:47:39.959Z,90.20
2024-01-16T04:50:09.215Z,89.30
2024-01-16T04:52:37.164Z,88.30
2024-01-16T04:55:05.534Z,87.80
2024-01-16T04:57:33.922Z,87.80
2024-01-16T05:00:06.836Z,88.20
2024-01-16T05:02:35.040Z,88.50
2024-01-16T05:05:02.955Z,88.30
2024-01-16T05:07:30.829Z,88.50
2024-01-16T05:09:59.188Z,88.40
2024-01-16T05:12:27.112Z,88.60
2024-01-16T05:14:55.030Z,88.70
2024-01-16T05:17:24.603Z,88.70
2024-01-16T05:19:52.546Z,88.60
2024-01-16T05:22:20.396Z,88.60
2024-01-16T05:24:48.247Z,88.90
2024-01-16T05:27:16.199Z,89.20
2024-01-16T05:29:44.729Z,89.30
2024-01-16T05:32:13.355Z,89.30
2024-01-16T05:34:42.664Z,89.50
2024-01-16T05:37:10.522Z,89.40
2024-01-16T05:39:38.496Z,89.60
2024-01-16T05:42:07.274Z,89.80
2024-01-16T05:44:35.282Z,90.00
2024-01-16T05:47:03.440Z,90.60
2024-01-16T05:49:31.349Z,91.10
2024-01-16T05:52:00.625Z,91.10
2024-01-16T05:54:28.497Z,90.40
2024-01-16T05:56:56.411Z,89.80
2024-01-16T05:59:24.283Z,90.10
2024-01-16T06:01:52.113Z,90.00
2024-01-16T06:04:20.230Z,89.80
2024-01-16T06:06:49.115Z,89.70
2024-01-16T06:09:19.547Z,89.90
2024-01-16T06:11:49.135Z,90.40
2024-01-16T06:14:22.481Z,90.30
2024-01-16T06:16:50.651Z,90.10
2024-01-16T06:19:18.523Z,89.60
2024-01-16T06:21:46.525Z,89.20
2024-01-16T06:24:14.885Z,88.90
2024-01-16T06:26:44.329Z,88.80
2024-01-16T06:29:21.152Z,88.80
2024-01-16T06:31:52.936Z,88.80
2024-01-16T06:34:20.839Z,88.70
2024-01-16T06:36:48.787Z,88.50
2024-01-16T06:39:17.051Z,88.50
2024-01-16T06:41:46.314Z,88.30
2024-01-16T06:44:14.306Z,88.20
2024-01-16T06:46:42.174Z,88.20
2024-01-16T06:49:10.163Z,88.40
2024-01-16T06:51:38.078Z,88.80
2024-01-16T06:54:06.104Z,89.20
2024-01-16T06:56:34.523Z,89.00
2024-01-16T06:59:04.076Z,89.00
2024-01-16T07:01:32.549Z,88.80
2024-01-16T07:04:00.572Z,88.60
2024-01-16T07:06:28.770Z,88.70
2024-01-16T07:08:56.842Z,88.90
2024-01-16T07:11:25.463Z,88.80
2024-01-16T07:13:53.395Z,88.90
2024-01-16T07:16:22.561Z,88.70
2024-01-16T07:18:50.796Z,88.70
2024-01-16T07:21:19.404Z,88.50
2024-01-16T07:23:47.665Z,88.60
2024-01-16T07:26:17.404Z,88.50
2024-01-16T07:28:45.685Z,88.10
2024-01-16T07:31:13.698Z,87.90
2024-01-16T07:33:43.053Z,87.70
2024-01-16T07:36:13.074Z,87.40
2024-01-16T07:38:41.202Z,87.20
2024-01-16T07:41:09.163Z,86.70
2024-01-16T07:43:37.201Z,86.30
2024-01-16T07:46:04.602Z,86.10
2024-01-16T07:48:32.641Z,85.30
2024-01-16T07:51:02.001Z,84.80
2024-01-16T07:53:29.938Z,84.80
2024-01-16T07:55:58.385Z,84.40
2024-01-16T07:58:26.265Z,84.30
2024-01-16T08:00:54.191Z,83.80
2024-01-16T08:03:22.104Z,84.10
2024-01-16T08:05:50.108Z,83.30
2024-01-16T08:08:19.472Z,82.70
2024-01-16T08:10:48.196Z,81.30
2024-01-16T08:13:16.059Z,80.60
2024-01-16T08:15:43.944Z,80.40
2024-01-16T08:18:12.110Z,79.60
2024-01-16T08:20:40.094Z,78.90
2024-01-16T08:23:08.001Z,78.30
2024-01-16T08:25:37.195Z,79.30
2024-01-16T08:28:06.035Z,79.20
2024-01-16T08:30:33.846Z,79.00
2024-01-16T08:33:01.970Z,80.00
2024-01-16T08:35:29.912Z,79.30
2024-01-16T08:37:57.976Z,79.70
2024-01-16T08:40:26.270Z,79.30
2024-01-16T08:42:58.159Z,78.90
2024-01-16T08:45:27.339Z,78.00
2024-01-16T08:47:55.634Z,78.00
2024-01-16T08:50:24.187Z,76.10
2024-01-16T08:52:52.578Z,75.80
2024-01-16T08:55:20.641Z,74.60
2024-01-16T08:57:48.459Z,73.80
2024-01-16T09:00:18.430Z,73.90
2024-01-16T09:02:46.374Z,74.60
2024-01-16T09:05:15.779Z,75.00
2024-01-16T09:07:43.944Z,76.50
2024-01-16T09:10:12.721Z,77.20
2024-01-16T09:12:40.555Z,76.80
2024-01-16T09:15:09.614Z,74.50
2024-01-16T09:17:40.201Z,75.50
2024-01-16T09:20:09.846Z,75.60
2024-01-16T09:22:37.736Z,74.20
2024-01-16T09:25:06.551Z,74.50
2024-01-16T09:27:34.449Z,73.10
2024-01-16T09:30:02.367Z,73.10
2024-01-16T09:32:30.424Z,72.40
2024-01-16T09:34:59.807Z,72.40
2024-01-16T09:37:27.681Z,70.50
2024-01-16T09:39:55.519Z,69.70
2024-01-16T09:42:23.399Z,68.90
2024-01-16T09:44:51.834Z,69.70
2024-01-16T09:47:21.285Z,69.50
2024-01-16T09:49:49.909Z,68.60
2024-01-16T09:52:19.236Z,66.40
2024-01-16T09:54:47.105Z,65.50
2024-01-16T09:57:16.373Z,65.90
2024-01-16T09:59:45.114Z,63.90
2024-01-16T10:02:15.746Z,63.20
2024-01-16T10:04:44.623Z,61.20
2024-01-16T10:07:14.623Z,61.50
2024-01-16T10:09:45.092Z,63.90
2024-01-16T10:12:13.105Z,63.70
2024-01-16T10:14:41.998Z,64.50
2024-01-16T10:17:15.246Z,66.70
2024-01-16T10:19:50.709Z,65.40
2024-01-16T10:22:25.827Z,64.20
2024-01-16T10:25:06.835Z,64.80
2024-01-16T10:27:35.068Z,64.00
2024-01-16T10:30:03.884Z,63.90
2024-01-16T10:32:33.257Z,66.80
2024-01-16T10:35:09.412Z,67.30
2024-01-16T10:37:45.143Z,66.80
2024-01-16T10:40:17.639Z,65.50
2024-01-16T10:42:47.327Z,64.60
2024-01-16T10:45:20.540Z,63.90
2024-01-16T10:47:49.165Z,62.20
2024-01-16T10:50:17.351Z,62.90
2024-01-16T10:52:50.027Z,62.50
2024-01-16T10:55:23.421Z,62.10
2024-01-16T10:57:52.023Z,62.30
2024-01-16T11:00:22.529Z,61.30
2024-01-16T11:02:54.685Z,61.00
2024-01-16T11:05:26.469Z,60.90
2024-01-16T11:07:57.324Z,61.10
2024-01-16T11:10:27.832Z,60.10
2024-01-16T11:12:57.849Z,59.60
2024-01-16T11:15:26.807Z,58.70
2024-01-16T11:17:55.928Z,58.60
2024-01-16T11:20:38.793Z,57.90
2024-01-16T11:23:13.930Z,57.00
2024-01-16T11:25:43.213Z,57.80
2024-01-16T11:28:12.775Z,56.30
2024-01-16T11:30:41.002Z,55.20
2024-01-16T11:33:29.162Z,56.60
2024-01-16T11:35:57.224Z,56.40
2024-01-16T11:38:28.130Z,55.70
2024-01-16T11:40:57.801Z,57.10
2024-01-16T11:43:39.112Z,55.20
2024-01-16T11:46:08.499Z,54.90
2024-01-16T11:48:36.878Z,54.50
2024-01-16T11:51:25.804Z,54.60
2024-01-16T11:53:53.842Z,54.10
2024-01-16T11:56:56.111Z,55.00
2024-01-16T11:59:56.442Z,56.00
2024-01-16T12:02:36.219Z,56.30
2024-01-16T12:05:07.962Z,57.20
2024-01-16T12:07:48.139Z,57.00
2024-01-16T12:10:16.118Z,56.90
2024-01-16T12:12:45.575Z,56.00
2024-01-16T12:15:18.322Z,55.00
2024-01-16T12:17:57.123Z,55.50
2024-01-16T12:20:26.842Z,55.20
2024-01-16T12:22:56.642Z,54.60
2024-01-16T12:25:24.866Z,54.80
2024-01-16T12:28:28.133Z,55.50
2024-01-16T12:31:00.846Z,55.90
2024-01-16T12:33:29.765Z,54.80
2024-01-16T12:36:04.215Z,55.80
2024-01-16T12:38:32.701Z,55.20
2024-01-16T12:41:03.438Z,54.30
2024-01-16T12:43:33.906Z,55.40
2024-01-16T12:46:01.965Z,55.90
2024-01-16T12:48:30.655Z,55.50
2024-01-16T12:51:02.145Z,54.70
2024-01-16T12:53:30.681Z,55.60
2024-01-16T12:56:03.516Z,56.30
2024-01-16T12:58:36.804Z,54.80
2024-01-16T13:01:34.206Z,54.80
2024-01-16T13:04:07.406Z,54.30
2024-01-16T13:06:35.650Z,55.10
2024-01-16T13:09:11.371Z,54.60
2024-01-16T13:11:51.762Z,55.20
2024-01-16T13:14:23.149Z,54.90
2024-01-16T13:16:51.913Z,54.20
2024-01-16T13:19:20.706Z,53.80
2024-01-16T13:21:49.209Z,55.20
2024-01-16T13:24:18.614Z,54.70
2024-01-16T13:26:46.942Z,56.60
2024-01-16T13:29:15.004Z,55.70
2024-01-16T13:31:44.716Z,55.10
2024-01-16T13:34:13.253Z,55.80
2024-01-16T13:36:54.543Z,55.90
2024-01-16T13:39:29.392Z,57.30
2024-01-16T13:41:57.251Z,56.60
2024-01-16T13:44:25.192Z,56.40
2024-01-16T13:47:01.803Z,56.20
2024-01-16T13:49:35.574Z,56.80
2024-01-16T13:52:04.532Z,56.30
2024-01-16T13:54:32.646Z,56.90
2024-01-16T13:57:06.781Z,57.50
2024-01-16T13:59:36.899Z,57.00
2024-01-16T14:02:07.230Z,55.60
2024-01-16T14:04:35.477Z,56.40
2024-01-16T14:07:12.180Z,56.40
2024-01-16T14:09:44.347Z,57.00
2024-01-16T14:12:13.410Z,57.60
2024-01-16T14:14:42.769Z,57.60
2024-01-16T14:17:12.268Z,57.10
2024-01-16T14:19:40.265Z,57.50
2024-01-16T14:22:08.229Z,57.20
2024-01-16T14:24:36.173Z,57.70
2024-01-16T14:27:04.204Z,57.50
2024-01-16T14:29:32.219Z,57.50
2024-01-16T14:32:00.123Z,57.40
2024-01-16T14:34:29.940Z,57.60
2024-01-16T14:36:57.790Z,58.20
2024-01-16T14:39:27.482Z,58.90
2024-01-16T14:41:56.185Z,58.40
2024-01-16T14:44:24.229Z,58.50
2024-01-16T14:46:55.227Z,59.00
2024-01-16T14:49:23.668Z,59.30
2024-01-16T14:51:53.038Z,59.40
2024-01-16T14:54:20.908Z,59.30
2024-01-16T14:56:49.920Z,59.70
2024-01-16T14:59:19.128Z,59.90
2024-01-16T15:01:47.135Z,60.00
2024-01-16T15:04:15.097Z,60.50
2024-01-16T15:06:43.243Z,60.20
2024-01-16T15:09:13.888Z,60.40
2024-01-16T15:11:43.170Z,60.50
2024-01-16T15:14:13.568Z,60.30
2024-01-16T15:16:41.449Z,60.60
2024-01-16T15:19:09.662Z,61.20
2024-01-16T15:21:37.944Z,61.80
2024-01-16T15:24:06.070Z,62.30
2024-01-16T15:26:35.368Z,62.40
2024-01-16T15:29:03.275Z,63.10
2024-01-16T15:31:31.140Z,63.20
2024-01-16T15:33:59.177Z,63.50
2024-01-16T15:36:27.370Z,63.60
2024-01-16T15:38:55.374Z,64.00
2024-01-16T15:41:23.584Z,64.00
2024-01-16T15:43:52.857Z,64.10
2024-01-16T15:46:21.595Z,65.80
2024-01-16T15:48:52.073Z,68.50
2024-01-16T15:51:20.276Z,69.60
2024-01-16T15:53:48.265Z,70.60
2024-01-16T15:56:16.985Z,71.60
2024-01-16T15:58:44.846Z,72.70
2024-01-16T16:01:14.110Z,73.40
2024-01-16T16:03:42.035Z,73.40
2024-01-16T16:06:10.628Z,74.20
2024-01-16T16:08:38.943Z,74.40
2024-01-16T16:11:06.887Z,74.60
2024-01-16T16:13:34.773Z,74.90
2024-01-16T16:16:03.381Z,75.80
2024-01-16T16:18:35.697Z,76.00
2024-01-16T16:21:03.881Z,76.60
2024-01-16T16:23:31.968Z,76.60
2024-01-16T16:26:00.058Z,78.10
2024-01-16T16:28:27.967Z,77.90
2024-01-16T16:30:56.000Z,77.90
2024-01-16T16:33:25.008Z,77.80
2024-01-16T16:35:54.846Z,78.10
2024-01-16T16:38:22.739Z,78.00
2024-01-16T16:40:50.589Z,78.20
2024-01-16T16:43:18.430Z,78.50
2024-01-16T16:45:46.498Z,78.90
2024-01-16T16:48:14.973Z,79.50
2024-01-16T16:50:44.120Z,80.20
2024-01-16T16:53:13.379Z,80.10
2024-01-16T16:55:41.251Z,80.10
2024-01-16T16:58:10.441Z,80.50
2024-01-16T17:00:39.930Z,81.00
2024-01-16T17:03:08.920Z,81.20
2024-01-16T17:05:37.151Z,81.20
2024-01-16T17:08:05.724Z,81.20
2024-01-16T17:10:34.975Z,81.50
2024-01-16T17:13:03.575Z,81.30
2024-01-16T17:15:31.679Z,81.30
2024-01-16T17:17:59.605Z,81.60
2024-01-16T17:20:27.618Z,81.70
2024-01-16T17:22:55.521Z,82.30
2024-01-16T17:25:23.496Z,82.70
2024-01-16T17:27:52.706Z,83.20
2024-01-16T17:30:21.110Z,83.60
2024-01-16T17:32:49.132Z,84.90
2024-01-16T17:35:19.558Z,85.10
2024-01-16T17:37:47.563Z,85.40
2024-01-16T17:40:15.572Z,85.60
2024-01-16T17:42:44.337Z,85.60
2024-01-16T17:45:13.520Z,85.50
2024-01-16T17:47:41.985Z,85.70
2024-01-16T17:50:12.573Z,86.10
2024-01-16T17:52:40.629Z,86.10
2024-01-16T17:55:09.897Z,86.60
2024-01-16T17:57:37.780Z,86.20
2024-01-16T18:00:07.119Z,86.20
2024-01-16T18:02:36.409Z,86.60
2024-01-16T18:05:11.170Z,86.60
2024-01-16T18:07:39.559Z,86.60
2024-01-16T18:10:10.117Z,86.40
2024-01-16T18:12:39.109Z,86.90
2024-01-16T18:15:12.855Z,86.10
2024-01-16T18:17:42.868Z,86.20
2024-01-16T18:20:11.912Z,86.00
2024-01-16T18:22:39.992Z,86.60
2024-01-16T18:25:09.776Z,87.00
2024-01-16T18:27:38.617Z,86.20
2024-01-16T18:30:07.966Z,86.50
2024-01-16T18:32:36.117Z,86.70
2024-01-16T18:35:06.608Z,86.70
2024-01-16T18:37:34.447Z,86.70
2024-01-16T18:40:02.391Z,87.00
2024-01-16T18:42:30.256Z,87.50
2024-01-16T18:44:58.255Z,88.40
2024-01-16T18:47:26.546Z,89.00
2024-01-16T18:49:54.502Z,88.60
2024-01-16T18:52:23.772Z,88.10
2024-01-16T18:54:52.049Z,88.20
2024-01-16T18:57:19.899Z,88.50
2024-01-16T18:59:47.786Z,89.20
2024-01-16T19:02:21.840Z,89.60
2024-01-16T19:04:50.428Z,88.60
2024-01-16T19:07:18.735Z,88.20
2024-01-16T19:09:47.978Z,88.30
2024-01-16T19:12:15.873Z,88.40
2024-01-16T19:14:46.233Z,88.70
2024-01-16T19:17:16.727Z,89.10
2024-01-16T19:19:44.591Z,88.80
2024-01-16T19:22:12.493Z,88.40
2024-01-16T19:24:40.325Z,88.00
2024-01-16T19:27:09.750Z,88.30
2024-01-16T19:29:37.642Z,88.40
2024-01-16T19:32:06.575Z,88.20
2024-01-16T19:34:34.505Z,87.70
2024-01-16T19:37:02.651Z,89.00
2024-01-16T19:39:33.686Z,89.90
2024-01-16T19:42:01.869Z,90.00
2024-01-16T19:44:31.267Z,91.00
2024-01-16T19:46:59.195Z,90.90
2024-01-16T19:49:27.770Z,90.10
2024-01-16T19:51:55.662Z,90.00
2024-01-16T19:54:22.608Z,89.80
2024-01-16T19:56:50.535Z,89.50
2024-01-16T19:59:18.509Z,90.10
2024-01-16T20:01:48.013Z,90.50
2024-01-16T20:04:17.445Z,90.80
2024-01-16T20:06:46.551Z,91.40
2024-01-16T20:09:17.399Z,91.80
2024-01-16T20:11:47.237Z,93.20
2024-01-16T20:14:16.678Z,90.90
2024-01-16T20:16:44.685Z,89.40
2024-01-16T20:19:14.515Z,88.70
2024-01-16T20:21:45.473Z,89.20
2024-01-16T20:24:13.652Z,88.00
2024-01-16T20:26:42.121Z,87.70
2024-01-16T20:29:11.500Z,88.60
2024-01-16T20:31:41.696Z,87.60
2024-01-16T20:34:09.690Z,87.10
2024-01-16T20:36:39.683Z,87.20
2024-01-16T20:39:10.037Z,87.60
2024-01-16T20:41:37.993Z,88.00
2024-01-16T20:44:06.117Z,88.10
2024-01-16T20:46:36.351Z,88.90
2024-01-16T20:49:06.463Z,89.70
2024-01-16T20:51:34.353Z,90.30
2024-01-16T20:54:06.021Z,90.60
2024-01-16T20:56:34.108Z,90.70
2024-01-16T20:59:02.021Z,90.30
2024-01-16T21:01:29.923Z,90.70
2024-01-16T21:03:57.774Z,90.50
2024-01-16T21:06:25.776Z,89.60
2024-01-16T21:08:53.737Z,89.00
2024-01-16T21:11:23.035Z,87.70
2024-01-16T21:13:52.294Z,87.10
2024-01-16T21:16:19.460Z,86.40
2024-01-16T21:18:49.724Z,87.10
2024-01-16T21:21:17.679Z,87.00
2024-01-16T21:23:46.733Z,87.00
2024-01-16T21:26:14.679Z,87.10
2024-01-16T21:28:44.198Z,87.20
2024-01-16T21:31:12.251Z,87.70
2024-01-16T21:33:40.942Z,88.30
2024-01-16T21:36:09.585Z,88.30
2024-01-16T21:38:37.528Z,88.30
2024-01-16T21:41:07.969Z,88.30
2024-01-16T21:43:35.959Z,88.20
2024-01-16T21:46:05.504Z,88.00
2024-01-16T21:48:33.950Z,88.30
2024-01-16T21:51:02.198Z,88.70
2024-01-16T21:53:30.735Z,88.70
2024-01-16T21:55:58.607Z,89.00
2024-01-16T21:58:27.477Z,89.00
2024-01-16T22:00:56.594Z,88.90
2024-01-16T22:03:26.910Z,87.60
2024-01-16T22:05:57.724Z,87.30
2024-01-16T22:08:25.791Z,88.00
2024-01-16T22:10:54.227Z,88.30
2024-01-16T22:13:23.340Z,87.90
2024-01-16T22:15:51.411Z,88.20
2024-01-16T22:18:19.562Z,88.20
2024-01-16T22:20:49.027Z,86.20
2024-01-16T22:23:17.190Z,85.40
2024-01-16T22:25:45.470Z,85.30
2024-01-16T22:28:13.766Z,84.90
2024-01-16T22:30:41.877Z,84.90
2024-01-16T22:33:09.933Z,84.50
2024-01-16T22:35:37.933Z,84.60
2024-01-16T22:38:07.215Z,85.20
2024-01-16T22:40:37.603Z,85.40
2024-01-16T22:43:06.724Z,85.80
2024-01-16T22:45:34.763Z,85.60
2024-01-16T22:48:06.305Z,85.60
2024-01-16T22:50:34.293Z,85.40
2024-01-16T22:53:03.668Z,85.50
2024-01-16T22:55:32.943Z,85.50
2024-01-16T22:58:01.044Z,85.50
2024-01-16T23:00:30.474Z,85.60
2024-01-16T23:02:58.871Z,85.60
2024-01-16T23:05:28.688Z,85.50
2024-01-16T23:07:58.051Z,85.50
2024-01-16T23:10:26.891Z,85.20
2024-01-16T23:12:56.208Z,85.40
2024-01-16T23:15:24.100Z,85.80
2024-01-16T23:17:52.086Z,85.10
2024-01-16T23:20:20.969Z,85.50
2024-01-16T23:22:49.181Z,85.10
2024-01-16T23:25:17.348Z,85.00
2024-01-16T23:27:45.682Z,85.30
2024-01-16T23:30:15.208Z,85.40
2024-01-16T23:32:43.330Z,85.60
2024-01-16T23:35:11.517Z,85.40
2024-01-16T23:37:41.418Z,85.30
2024-01-16T23:40:13.254Z,85.00
2024-01-16T23:42:42.365Z,84.40
2024-01-16T23:45:20.506Z,83.90
2024-01-16T23:47:56.814Z,84.20
2024-01-16T23:50:24.812Z,84.60
2024-01-16T23:52:52.669Z,84.70
2024-01-16T23:55:20.515Z,84.90
2024-01-16T23:57:48.370Z,84.90
